sensor_id;sensor_type;location;lat;lon;timestamp;temperature;humidity
80228;DHT22;69539;42.138;24.742;2023-05-29T00:02:08;21.30;57.40
80228;DHT22;69539;42.138;24.742;2023-05-29T00:04:33;21.30;57.50
80228;DHT22;69539;42.138;24.742;2023-05-29T00:06:59;21.30;57.60
80228;DHT22;69539;42.138;24.742;2023-05-29T00:09:25;21.30;57.60
80228;DHT22;69539;42.138;24.742;2023-05-29T00:11:51;21.30;57.70
80228;DHT22;69539;42.138;24.742;2023-05-29T00:14:21;21.30;58.10
80228;DHT22;69539;42.138;24.742;2023-05-29T00:16:48;21.30;57.50
80228;DHT22;69539;42.138;24.742;2023-05-29T00:19:14;21.30;57.40
80228;DHT22;69539;42.138;24.742;2023-05-29T00:21:42;21.30;57.40
80228;DHT22;69539;42.138;24.742;2023-05-29T00:24:08;21.30;57.30
80228;DHT22;69539;42.138;24.742;2023-05-29T00:26:34;21.30;57.40
80228;DHT22;69539;42.138;24.742;2023-05-29T00:29:00;21.20;57.30
80228;DHT22;69539;42.138;24.742;2023-05-29T00:31:25;21.20;57.40
80228;DHT22;69539;42.138;24.742;2023-05-29T00:33:51;21.20;57.50
80228;DHT22;69539;42.138;24.742;2023-05-29T00:36:17;21.20;57.60
80228;DHT22;69539;42.138;24.742;2023-05-29T00:38:43;21.20;57.50
80228;DHT22;69539;42.138;24.742;2023-05-29T00:41:14;21.20;57.50
80228;DHT22;69539;42.138;24.742;2023-05-29T00:43:41;21.20;57.60
80228;DHT22;69539;42.138;24.742;2023-05-29T00:46:07;21.20;57.60
80228;DHT22;69539;42.138;24.742;2023-05-29T00:48:33;21.20;57.60
80228;DHT22;69539;42.138;24.742;2023-05-29T00:50:59;21.20;57.70
80228;DHT22;69539;42.138;24.742;2023-05-29T00:53:25;21.20;57.70
80228;DHT22;69539;42.138;24.742;2023-05-29T00:55:51;21.20;57.80
80228;DHT22;69539;42.138;24.742;2023-05-29T00:58:18;21.20;57.80
80228;DHT22;69539;42.138;24.742;2023-05-29T01:00:44;21.20;57.80
80228;DHT22;69539;42.138;24.742;2023-05-29T01:03:12;21.20;57.80
80228;DHT22;69539;42.138;24.742;2023-05-29T01:05:40;21.20;57.80
80228;DHT22;69539;42.138;24.742;2023-05-29T01:08:07;21.20;57.70
80228;DHT22;69539;42.138;24.742;2023-05-29T01:10:33;21.20;57.80
80228;DHT22;69539;42.138;24.742;2023-05-29T01:15:54;21.20;57.90
80228;DHT22;69539;42.138;24.742;2023-05-29T01:26:44;21.20;58.00
80228;DHT22;69539;42.138;24.742;2023-05-29T01:29:13;21.20;58.00
80228;DHT22;69539;42.138;24.742;2023-05-29T01:31:40;21.20;57.80
80228;DHT22;69539;42.138;24.742;2023-05-29T01:34:07;21.20;57.80
80228;DHT22;69539;42.138;24.742;2023-05-29T01:36:33;21.10;57.60
80228;DHT22;69539;42.138;24.742;2023-05-29T01:38:59;21.20;57.50
80228;DHT22;69539;42.138;24.742;2023-05-29T01:41:26;21.10;57.30
80228;DHT22;69539;42.138;24.742;2023-05-29T01:43:52;21.20;57.30
80228;DHT22;69539;42.138;24.742;2023-05-29T01:46:19;21.10;57.20
80228;DHT22;69539;42.138;24.742;2023-05-29T01:48:46;21.10;57.40
80228;DHT22;69539;42.138;24.742;2023-05-29T01:51:12;21.10;57.20
80228;DHT22;69539;42.138;24.742;2023-05-29T01:53:39;21.10;57.30
80228;DHT22;69539;42.138;24.742;2023-05-29T01:56:06;21.10;57.40
80228;DHT22;69539;42.138;24.742;2023-05-29T01:58:32;21.10;57.30
80228;DHT22;69539;42.138;24.742;2023-05-29T02:00:58;21.20;57.30
80228;DHT22;69539;42.138;24.742;2023-05-29T02:03:25;21.10;57.30
80228;DHT22;69539;42.138;24.742;2023-05-29T02:05:54;21.10;57.30
80228;DHT22;69539;42.138;24.742;2023-05-29T02:08:21;21.10;57.20
80228;DHT22;69539;42.138;24.742;2023-05-29T02:10:46;21.10;57.20
80228;DHT22;69539;42.138;24.742;2023-05-29T02:13:12;21.10;57.20
80228;DHT22;69539;42.138;24.742;2023-05-29T02:15:38;21.10;57.10
80228;DHT22;69539;42.138;24.742;2023-05-29T02:18:03;21.10;57.10
80228;DHT22;69539;42.138;24.742;2023-05-29T02:20:29;21.10;57.10
80228;DHT22;69539;42.138;24.742;2023-05-29T02:22:55;21.10;57.10
80228;DHT22;69539;42.138;24.742;2023-05-29T02:25:20;21.10;57.10
80228;DHT22;69539;42.138;24.742;2023-05-29T02:27:46;21.10;57.00
80228;DHT22;69539;42.138;24.742;2023-05-29T02:30:12;21.10;56.90
80228;DHT22;69539;42.138;24.742;2023-05-29T02:32:37;21.10;56.90
80228;DHT22;69539;42.138;24.742;2023-05-29T02:35:03;21.10;56.90
80228;DHT22;69539;42.138;24.742;2023-05-29T02:37:29;21.10;56.90
80228;DHT22;69539;42.138;24.742;2023-05-29T02:39:55;21.10;56.90
80228;DHT22;69539;42.138;24.742;2023-05-29T02:42:20;21.10;56.90
80228;DHT22;69539;42.138;24.742;2023-05-29T02:44:46;21.10;56.90
80228;DHT22;69539;42.138;24.742;2023-05-29T02:47:12;21.10;57.00
80228;DHT22;69539;42.138;24.742;2023-05-29T02:49:38;21.10;56.90
80228;DHT22;69539;42.138;24.742;2023-05-29T02:52:03;21.10;56.90
80228;DHT22;69539;42.138;24.742;2023-05-29T02:54:29;21.10;56.90
80228;DHT22;69539;42.138;24.742;2023-05-29T02:56:55;21.10;56.80
80228;DHT22;69539;42.138;24.742;2023-05-29T02:59:22;21.10;56.80
80228;DHT22;69539;42.138;24.742;2023-05-29T03:01:47;21.00;56.70
80228;DHT22;69539;42.138;24.742;2023-05-29T03:04:14;21.00;56.70
80228;DHT22;69539;42.138;24.742;2023-05-29T03:06:39;21.00;56.70
80228;DHT22;69539;42.138;24.742;2023-05-29T03:09:05;21.00;56.70
80228;DHT22;69539;42.138;24.742;2023-05-29T03:11:32;21.00;56.60
80228;DHT22;69539;42.138;24.742;2023-05-29T03:13:58;21.00;56.50
80228;DHT22;69539;42.138;24.742;2023-05-29T03:16:24;21.00;56.60
80228;DHT22;69539;42.138;24.742;2023-05-29T03:18:50;21.00;56.40
80228;DHT22;69539;42.138;24.742;2023-05-29T03:21:17;21.00;56.50
80228;DHT22;69539;42.138;24.742;2023-05-29T03:23:43;21.00;56.70
80228;DHT22;69539;42.138;24.742;2023-05-29T03:26:08;21.00;56.80
80228;DHT22;69539;42.138;24.742;2023-05-29T03:28:34;21.00;56.80
80228;DHT22;69539;42.138;24.742;2023-05-29T03:31:01;21.00;56.90
80228;DHT22;69539;42.138;24.742;2023-05-29T03:33:27;21.00;57.00
80228;DHT22;69539;42.138;24.742;2023-05-29T03:35:52;21.00;56.90
80228;DHT22;69539;42.138;24.742;2023-05-29T03:38:18;21.00;56.80
80228;DHT22;69539;42.138;24.742;2023-05-29T03:40:43;21.00;56.80
80228;DHT22;69539;42.138;24.742;2023-05-29T03:43:09;21.00;56.80
80228;DHT22;69539;42.138;24.742;2023-05-29T03:45:35;21.00;56.80
80228;DHT22;69539;42.138;24.742;2023-05-29T03:48:01;21.00;56.90
80228;DHT22;69539;42.138;24.742;2023-05-29T03:50:26;21.00;56.90
80228;DHT22;69539;42.138;24.742;2023-05-29T03:52:52;21.00;56.90
80228;DHT22;69539;42.138;24.742;2023-05-29T03:55:17;21.00;56.80
80228;DHT22;69539;42.138;24.742;2023-05-29T03:57:43;21.00;56.80
80228;DHT22;69539;42.138;24.742;2023-05-29T04:00:10;21.00;56.80
80228;DHT22;69539;42.138;24.742;2023-05-29T04:02:40;21.00;56.70
80228;DHT22;69539;42.138;24.742;2023-05-29T04:05:06;21.00;56.50
80228;DHT22;69539;42.138;24.742;2023-05-29T04:07:36;21.00;56.30
80228;DHT22;69539;42.138;24.742;2023-05-29T04:10:06;21.00;56.20
80228;DHT22;69539;42.138;24.742;2023-05-29T04:12:32;21.00;56.20
80228;DHT22;69539;42.138;24.742;2023-05-29T04:14:58;21.00;56.20
80228;DHT22;69539;42.138;24.742;2023-05-29T04:17:24;21.10;56.20
80228;DHT22;69539;42.138;24.742;2023-05-29T04:19:50;21.00;56.10
80228;DHT22;69539;42.138;24.742;2023-05-29T04:22:15;21.00;56.00
80228;DHT22;69539;42.138;24.742;2023-05-29T04:24:41;21.10;56.00
80228;DHT22;69539;42.138;24.742;2023-05-29T04:27:08;21.10;55.90
80228;DHT22;69539;42.138;24.742;2023-05-29T04:29:34;21.10;55.90
80228;DHT22;69539;42.138;24.742;2023-05-29T04:32:01;21.10;55.80
80228;DHT22;69539;42.138;24.742;2023-05-29T04:34:29;21.10;55.80
80228;DHT22;69539;42.138;24.742;2023-05-29T04:36:57;21.10;55.70
80228;DHT22;69539;42.138;24.742;2023-05-29T04:39:24;21.10;55.80
80228;DHT22;69539;42.138;24.742;2023-05-29T04:41:50;21.10;55.90
80228;DHT22;69539;42.138;24.742;2023-05-29T04:44:17;21.10;55.90
80228;DHT22;69539;42.138;24.742;2023-05-29T04:46:43;21.10;55.90
80228;DHT22;69539;42.138;24.742;2023-05-29T04:49:12;21.20;56.00
80228;DHT22;69539;42.138;24.742;2023-05-29T04:51:39;21.10;56.00
80228;DHT22;69539;42.138;24.742;2023-05-29T04:54:08;21.20;56.10
80228;DHT22;69539;42.138;24.742;2023-05-29T04:56:37;21.20;56.10
80228;DHT22;69539;42.138;24.742;2023-05-29T04:59:05;21.20;56.00
80228;DHT22;69539;42.138;24.742;2023-05-29T05:01:32;21.20;56.10
80228;DHT22;69539;42.138;24.742;2023-05-29T05:03:59;21.20;56.20
80228;DHT22;69539;42.138;24.742;2023-05-29T05:06:25;21.20;56.20
80228;DHT22;69539;42.138;24.742;2023-05-29T05:08:51;21.20;56.70
80228;DHT22;69539;42.138;24.742;2023-05-29T05:11:18;21.20;56.60
80228;DHT22;69539;42.138;24.742;2023-05-29T05:13:44;21.30;56.80
80228;DHT22;69539;42.138;24.742;2023-05-29T05:16:10;21.20;56.60
80228;DHT22;69539;42.138;24.742;2023-05-29T05:18:36;21.30;56.60
80228;DHT22;69539;42.138;24.742;2023-05-29T05:21:02;21.30;56.40
80228;DHT22;69539;42.138;24.742;2023-05-29T05:23:31;21.30;55.90
80228;DHT22;69539;42.138;24.742;2023-05-29T05:25:57;21.30;56.00
80228;DHT22;69539;42.138;24.742;2023-05-29T05:28:23;21.30;56.10
80228;DHT22;69539;42.138;24.742;2023-05-29T05:30:49;21.40;56.00
80228;DHT22;69539;42.138;24.742;2023-05-29T05:33:15;21.40;55.90
80228;DHT22;69539;42.138;24.742;2023-05-29T05:35:40;21.40;55.80
80228;DHT22;69539;42.138;24.742;2023-05-29T05:38:06;21.40;55.60
80228;DHT22;69539;42.138;24.742;2023-05-29T05:40:33;21.40;55.40
80228;DHT22;69539;42.138;24.742;2023-05-29T05:42:58;21.50;55.40
80228;DHT22;69539;42.138;24.742;2023-05-29T05:45:24;21.50;55.30
80228;DHT22;69539;42.138;24.742;2023-05-29T05:47:50;21.50;55.40
80228;DHT22;69539;42.138;24.742;2023-05-29T05:50:16;21.60;55.20
80228;DHT22;69539;42.138;24.742;2023-05-29T05:52:41;21.60;55.80
80228;DHT22;69539;42.138;24.742;2023-05-29T05:55:07;21.70;55.90
80228;DHT22;69539;42.138;24.742;2023-05-29T05:57:33;21.80;55.70
80228;DHT22;69539;42.138;24.742;2023-05-29T06:00:03;21.80;55.40
80228;DHT22;69539;42.138;24.742;2023-05-29T06:02:39;21.90;55.40
80228;DHT22;69539;42.138;24.742;2023-05-29T06:05:08;21.90;55.40
80228;DHT22;69539;42.138;24.742;2023-05-29T06:07:35;21.90;55.10
80228;DHT22;69539;42.138;24.742;2023-05-29T06:10:02;21.90;55.00
80228;DHT22;69539;42.138;24.742;2023-05-29T06:12:28;22.00;54.90
80228;DHT22;69539;42.138;24.742;2023-05-29T06:14:54;22.10;54.70
80228;DHT22;69539;42.138;24.742;2023-05-29T06:17:20;22.10;54.50
80228;DHT22;69539;42.138;24.742;2023-05-29T06:19:46;22.20;54.30
80228;DHT22;69539;42.138;24.742;2023-05-29T06:22:14;22.20;55.10
80228;DHT22;69539;42.138;24.742;2023-05-29T06:24:39;22.30;55.20
80228;DHT22;69539;42.138;24.742;2023-05-29T06:27:06;22.30;54.60
80228;DHT22;69539;42.138;24.742;2023-05-29T06:29:32;22.40;54.00
80228;DHT22;69539;42.138;24.742;2023-05-29T06:31:58;22.40;53.60
80228;DHT22;69539;42.138;24.742;2023-05-29T06:34:23;22.50;53.50
80228;DHT22;69539;42.138;24.742;2023-05-29T06:36:49;22.50;53.50
80228;DHT22;69539;42.138;24.742;2023-05-29T06:39:15;22.60;53.40
80228;DHT22;69539;42.138;24.742;2023-05-29T06:41:41;22.60;53.00
80228;DHT22;69539;42.138;24.742;2023-05-29T06:44:06;22.60;52.90
80228;DHT22;69539;42.138;24.742;2023-05-29T06:46:32;22.70;52.80
80228;DHT22;69539;42.138;24.742;2023-05-29T06:48:57;22.70;52.60
80228;DHT22;69539;42.138;24.742;2023-05-29T06:51:23;22.70;52.70
80228;DHT22;69539;42.138;24.742;2023-05-29T06:53:49;22.80;52.70
80228;DHT22;69539;42.138;24.742;2023-05-29T06:56:14;22.80;52.40
80228;DHT22;69539;42.138;24.742;2023-05-29T06:58:40;22.90;52.20
80228;DHT22;69539;42.138;24.742;2023-05-29T07:01:06;22.90;52.00
80228;DHT22;69539;42.138;24.742;2023-05-29T07:03:32;22.90;52.20
80228;DHT22;69539;42.138;24.742;2023-05-29T07:05:57;23.00;51.90
80228;DHT22;69539;42.138;24.742;2023-05-29T07:08:24;23.10;51.80
80228;DHT22;69539;42.138;24.742;2023-05-29T07:10:50;23.20;51.60
80228;DHT22;69539;42.138;24.742;2023-05-29T07:13:16;23.20;51.40
80228;DHT22;69539;42.138;24.742;2023-05-29T07:15:44;23.30;51.30
80228;DHT22;69539;42.138;24.742;2023-05-29T07:18:09;23.40;51.20
80228;DHT22;69539;42.138;24.742;2023-05-29T07:20:36;23.40;50.70
80228;DHT22;69539;42.138;24.742;2023-05-29T07:23:02;23.50;50.70
80228;DHT22;69539;42.138;24.742;2023-05-29T07:25:29;23.50;50.40
80228;DHT22;69539;42.138;24.742;2023-05-29T07:27:55;23.50;50.10
80228;DHT22;69539;42.138;24.742;2023-05-29T07:30:20;23.50;49.90
80228;DHT22;69539;42.138;24.742;2023-05-29T07:32:46;23.60;49.40
80228;DHT22;69539;42.138;24.742;2023-05-29T07:35:25;23.60;49.20
80228;DHT22;69539;42.138;24.742;2023-05-29T07:37:51;23.50;49.10
80228;DHT22;69539;42.138;24.742;2023-05-29T07:40:18;23.60;48.90
80228;DHT22;69539;42.138;24.742;2023-05-29T07:42:43;23.70;48.80
80228;DHT22;69539;42.138;24.742;2023-05-29T07:45:09;23.70;48.70
80228;DHT22;69539;42.138;24.742;2023-05-29T07:47:36;23.70;48.70
80228;DHT22;69539;42.138;24.742;2023-05-29T07:50:02;23.80;48.60
80228;DHT22;69539;42.138;24.742;2023-05-29T07:52:27;23.90;48.50
80228;DHT22;69539;42.138;24.742;2023-05-29T07:54:53;23.90;48.10
80228;DHT22;69539;42.138;24.742;2023-05-29T07:57:19;24.00;48.40
80228;DHT22;69539;42.138;24.742;2023-05-29T07:59:45;24.00;48.20
80228;DHT22;69539;42.138;24.742;2023-05-29T08:02:15;24.10;48.10
80228;DHT22;69539;42.138;24.742;2023-05-29T08:04:41;24.10;47.70
80228;DHT22;69539;42.138;24.742;2023-05-29T08:07:07;24.20;47.70
80228;DHT22;69539;42.138;24.742;2023-05-29T08:09:35;24.20;47.60
80228;DHT22;69539;42.138;24.742;2023-05-29T08:12:00;24.30;47.50
80228;DHT22;69539;42.138;24.742;2023-05-29T08:14:26;24.30;47.70
80228;DHT22;69539;42.138;24.742;2023-05-29T08:16:52;24.30;48.40
80228;DHT22;69539;42.138;24.742;2023-05-29T08:19:17;24.40;47.80
80228;DHT22;69539;42.138;24.742;2023-05-29T08:21:43;24.50;47.30
80228;DHT22;69539;42.138;24.742;2023-05-29T08:24:09;24.50;47.40
80228;DHT22;69539;42.138;24.742;2023-05-29T08:26:35;24.50;47.10
80228;DHT22;69539;42.138;24.742;2023-05-29T08:29:01;24.60;47.00
80228;DHT22;69539;42.138;24.742;2023-05-29T08:31:27;24.60;47.00
80228;DHT22;69539;42.138;24.742;2023-05-29T08:33:53;24.70;47.00
80228;DHT22;69539;42.138;24.742;2023-05-29T08:36:19;24.80;46.90
80228;DHT22;69539;42.138;24.742;2023-05-29T08:38:49;24.90;46.90
80228;DHT22;69539;42.138;24.742;2023-05-29T08:41:21;25.00;46.30
80228;DHT22;69539;42.138;24.742;2023-05-29T08:43:49;25.20;46.10
80228;DHT22;69539;42.138;24.742;2023-05-29T08:46:18;25.30;45.80
80228;DHT22;69539;42.138;24.742;2023-05-29T08:48:47;25.40;44.50
80228;DHT22;69539;42.138;24.742;2023-05-29T08:51:13;25.50;44.30
80228;DHT22;69539;42.138;24.742;2023-05-29T08:53:40;25.60;43.40
80228;DHT22;69539;42.138;24.742;2023-05-29T08:56:06;25.60;43.60
80228;DHT22;69539;42.138;24.742;2023-05-29T08:58:32;25.70;43.40
80228;DHT22;69539;42.138;24.742;2023-05-29T09:00:59;25.70;43.10
80228;DHT22;69539;42.138;24.742;2023-05-29T09:03:25;25.80;42.70
80228;DHT22;69539;42.138;24.742;2023-05-29T09:05:50;25.90;42.60
80228;DHT22;69539;42.138;24.742;2023-05-29T09:08:16;25.90;42.90
80228;DHT22;69539;42.138;24.742;2023-05-29T09:10:43;25.90;42.90
80228;DHT22;69539;42.138;24.742;2023-05-29T09:13:09;25.90;42.90
80228;DHT22;69539;42.138;24.742;2023-05-29T09:15:35;25.90;43.20
80228;DHT22;69539;42.138;24.742;2023-05-29T09:18:01;25.90;42.80
80228;DHT22;69539;42.138;24.742;2023-05-29T09:20:26;25.90;42.70
80228;DHT22;69539;42.138;24.742;2023-05-29T09:22:59;25.90;42.80
80228;DHT22;69539;42.138;24.742;2023-05-29T09:25:30;26.00;42.90
80228;DHT22;69539;42.138;24.742;2023-05-29T09:28:01;25.90;43.40
80228;DHT22;69539;42.138;24.742;2023-05-29T09:32:59;26.00;42.30
80228;DHT22;69539;42.138;24.742;2023-05-29T09:35:26;26.00;41.70
80228;DHT22;69539;42.138;24.742;2023-05-29T09:37:52;25.90;40.80
80228;DHT22;69539;42.138;24.742;2023-05-29T09:40:18;26.00;41.00
80228;DHT22;69539;42.138;24.742;2023-05-29T09:42:43;25.90;41.10
80228;DHT22;69539;42.138;24.742;2023-05-29T09:45:09;25.90;41.40
80228;DHT22;69539;42.138;24.742;2023-05-29T09:47:35;25.90;41.40
80228;DHT22;69539;42.138;24.742;2023-05-29T09:50:01;25.90;41.20
80228;DHT22;69539;42.138;24.742;2023-05-29T09:52:29;25.90;41.70
80228;DHT22;69539;42.138;24.742;2023-05-29T09:54:55;25.90;41.20
80228;DHT22;69539;42.138;24.742;2023-05-29T09:57:23;26.00;41.00
80228;DHT22;69539;42.138;24.742;2023-05-29T09:59:52;26.00;40.60
80228;DHT22;69539;42.138;24.742;2023-05-29T10:02:18;26.00;40.60
80228;DHT22;69539;42.138;24.742;2023-05-29T10:04:44;26.00;40.70
80228;DHT22;69539;42.138;24.742;2023-05-29T10:07:20;26.00;40.50
80228;DHT22;69539;42.138;24.742;2023-05-29T10:09:53;26.00;41.80
80228;DHT22;69539;42.138;24.742;2023-05-29T10:12:21;26.00;41.30
80228;DHT22;69539;42.138;24.742;2023-05-29T10:14:52;26.10;41.80
80228;DHT22;69539;42.138;24.742;2023-05-29T10:17:24;26.10;42.20
80228;DHT22;69539;42.138;24.742;2023-05-29T10:19:51;26.10;42.40
80228;DHT22;69539;42.138;24.742;2023-05-29T10:22:20;26.10;42.50
80228;DHT22;69539;42.138;24.742;2023-05-29T10:24:48;26.20;41.80
80228;DHT22;69539;42.138;24.742;2023-05-29T10:27:16;26.20;40.10
80228;DHT22;69539;42.138;24.742;2023-05-29T10:29:49;26.30;41.30
80228;DHT22;69539;42.138;24.742;2023-05-29T10:38:15;26.40;40.90
80228;DHT22;69539;42.138;24.742;2023-05-29T10:40:42;26.40;41.10
80228;DHT22;69539;42.138;24.742;2023-05-29T10:43:08;26.40;41.10
80228;DHT22;69539;42.138;24.742;2023-05-29T10:50:36;26.50;40.80
80228;DHT22;69539;42.138;24.742;2023-05-29T10:53:02;26.60;40.40
80228;DHT22;69539;42.138;24.742;2023-05-29T10:55:38;26.60;40.40
80228;DHT22;69539;42.138;24.742;2023-05-29T10:58:14;26.60;40.10
80228;DHT22;69539;42.138;24.742;2023-05-29T11:00:41;26.60;39.90
80228;DHT22;69539;42.138;24.742;2023-05-29T11:03:10;26.60;39.60
80228;DHT22;69539;42.138;24.742;2023-05-29T11:08:30;26.70;39.50
80228;DHT22;69539;42.138;24.742;2023-05-29T11:10:58;26.80;39.00
80228;DHT22;69539;42.138;24.742;2023-05-29T11:19:03;27.00;38.40
80228;DHT22;69539;42.138;24.742;2023-05-29T11:21:56;27.00;38.10
80228;DHT22;69539;42.138;24.742;2023-05-29T11:24:27;27.10;38.00
80228;DHT22;69539;42.138;24.742;2023-05-29T11:26:54;27.10;36.70
80228;DHT22;69539;42.138;24.742;2023-05-29T11:29:24;27.10;37.50
80228;DHT22;69539;42.138;24.742;2023-05-29T11:32:03;27.10;37.80
80228;DHT22;69539;42.138;24.742;2023-05-29T11:34:30;27.10;37.80
80228;DHT22;69539;42.138;24.742;2023-05-29T11:37:00;27.20;37.10
80228;DHT22;69539;42.138;24.742;2023-05-29T11:39:26;27.20;37.20
80228;DHT22;69539;42.138;24.742;2023-05-29T11:41:52;27.20;37.70
80228;DHT22;69539;42.138;24.742;2023-05-29T11:44:18;27.20;38.10
80228;DHT22;69539;42.138;24.742;2023-05-29T11:46:44;27.30;38.20
80228;DHT22;69539;42.138;24.742;2023-05-29T11:49:10;27.30;38.20
80228;DHT22;69539;42.138;24.742;2023-05-29T11:51:35;27.30;37.70
80228;DHT22;69539;42.138;24.742;2023-05-29T11:54:02;27.30;37.80
80228;DHT22;69539;42.138;24.742;2023-05-29T11:56:28;27.30;37.80
80228;DHT22;69539;42.138;24.742;2023-05-29T11:58:55;27.30;37.70
80228;DHT22;69539;42.138;24.742;2023-05-29T12:01:23;27.30;37.80
80228;DHT22;69539;42.138;24.742;2023-05-29T12:03:50;27.40;37.90
80228;DHT22;69539;42.138;24.742;2023-05-29T12:06:16;27.40;37.70
80228;DHT22;69539;42.138;24.742;2023-05-29T12:08:56;27.40;37.70
80228;DHT22;69539;42.138;24.742;2023-05-29T12:11:24;27.40;37.30
80228;DHT22;69539;42.138;24.742;2023-05-29T12:14:01;27.50;37.50
80228;DHT22;69539;42.138;24.742;2023-05-29T12:16:28;27.50;37.50
80228;DHT22;69539;42.138;24.742;2023-05-29T12:18:56;27.50;37.60
80228;DHT22;69539;42.138;24.742;2023-05-29T12:21:22;27.50;37.70
80228;DHT22;69539;42.138;24.742;2023-05-29T12:23:48;27.50;37.30
80228;DHT22;69539;42.138;24.742;2023-05-29T12:26:14;27.50;37.40
80228;DHT22;69539;42.138;24.742;2023-05-29T12:28:44;27.60;37.40
80228;DHT22;69539;42.138;24.742;2023-05-29T12:31:10;27.60;37.50
80228;DHT22;69539;42.138;24.742;2023-05-29T12:33:43;27.60;37.20
80228;DHT22;69539;42.138;24.742;2023-05-29T12:36:09;27.60;37.00
80228;DHT22;69539;42.138;24.742;2023-05-29T12:38:50;27.60;36.30
80228;DHT22;69539;42.138;24.742;2023-05-29T12:41:41;27.60;36.60
80228;DHT22;69539;42.138;24.742;2023-05-29T12:44:07;27.60;36.00
80228;DHT22;69539;42.138;24.742;2023-05-29T12:46:39;27.60;35.00
80228;DHT22;69539;42.138;24.742;2023-05-29T12:49:17;27.60;34.70
80228;DHT22;69539;42.138;24.742;2023-05-29T12:51:48;27.60;35.00
80228;DHT22;69539;42.138;24.742;2023-05-29T12:54:15;27.60;35.10
80228;DHT22;69539;42.138;24.742;2023-05-29T12:56:42;27.60;35.40
80228;DHT22;69539;42.138;24.742;2023-05-29T12:59:09;27.60;35.60
80228;DHT22;69539;42.138;24.742;2023-05-29T13:01:36;27.60;35.90
80228;DHT22;69539;42.138;24.742;2023-05-29T13:04:04;27.60;36.00
80228;DHT22;69539;42.138;24.742;2023-05-29T13:06:34;27.60;36.10
80228;DHT22;69539;42.138;24.742;2023-05-29T13:09:01;27.60;36.00
80228;DHT22;69539;42.138;24.742;2023-05-29T13:11:26;27.60;36.00
80228;DHT22;69539;42.138;24.742;2023-05-29T13:13:52;27.50;35.50
80228;DHT22;69539;42.138;24.742;2023-05-29T13:16:18;27.50;35.90
80228;DHT22;69539;42.138;24.742;2023-05-29T13:18:43;27.50;36.20
80228;DHT22;69539;42.138;24.742;2023-05-29T13:21:09;27.50;36.20
80228;DHT22;69539;42.138;24.742;2023-05-29T13:23:36;27.50;36.30
80228;DHT22;69539;42.138;24.742;2023-05-29T13:26:03;27.50;35.90
80228;DHT22;69539;42.138;24.742;2023-05-29T13:28:29;27.50;36.10
80228;DHT22;69539;42.138;24.742;2023-05-29T13:30:54;27.50;35.90
80228;DHT22;69539;42.138;24.742;2023-05-29T13:33:20;27.50;35.40
80228;DHT22;69539;42.138;24.742;2023-05-29T13:35:46;27.50;35.70
80228;DHT22;69539;42.138;24.742;2023-05-29T13:38:11;27.60;35.50
80228;DHT22;69539;42.138;24.742;2023-05-29T13:40:37;27.50;35.40
80228;DHT22;69539;42.138;24.742;2023-05-29T13:43:03;27.50;35.70
80228;DHT22;69539;42.138;24.742;2023-05-29T13:45:28;27.50;35.70
80228;DHT22;69539;42.138;24.742;2023-05-29T13:47:55;27.50;36.00
80228;DHT22;69539;42.138;24.742;2023-05-29T13:50:21;27.50;36.20
80228;DHT22;69539;42.138;24.742;2023-05-29T13:52:51;27.50;35.60
80228;DHT22;69539;42.138;24.742;2023-05-29T13:55:16;27.40;35.20
80228;DHT22;69539;42.138;24.742;2023-05-29T13:57:42;27.40;35.20
80228;DHT22;69539;42.138;24.742;2023-05-29T14:00:09;27.40;35.40
80228;DHT22;69539;42.138;24.742;2023-05-29T14:02:35;27.40;34.90
80228;DHT22;69539;42.138;24.742;2023-05-29T14:05:01;27.40;34.20
80228;DHT22;69539;42.138;24.742;2023-05-29T14:07:26;27.40;34.40
80228;DHT22;69539;42.138;24.742;2023-05-29T14:09:52;27.40;35.40
80228;DHT22;69539;42.138;24.742;2023-05-29T14:12:18;27.40;37.50
80228;DHT22;69539;42.138;24.742;2023-05-29T14:14:44;27.40;38.30
80228;DHT22;69539;42.138;24.742;2023-05-29T14:17:09;27.30;38.90
80228;DHT22;69539;42.138;24.742;2023-05-29T14:19:35;27.10;39.50
80228;DHT22;69539;42.138;24.742;2023-05-29T14:22:01;27.10;40.10
80228;DHT22;69539;42.138;24.742;2023-05-29T14:24:27;26.90;40.00
80228;DHT22;69539;42.138;24.742;2023-05-29T14:26:52;26.80;40.00
80228;DHT22;69539;42.138;24.742;2023-05-29T14:29:18;26.60;40.30
80228;DHT22;69539;42.138;24.742;2023-05-29T14:31:44;26.40;40.70
80228;DHT22;69539;42.138;24.742;2023-05-29T14:34:11;26.40;40.90
80228;DHT22;69539;42.138;24.742;2023-05-29T14:36:36;26.30;41.10
80228;DHT22;69539;42.138;24.742;2023-05-29T14:39:03;26.30;41.30
80228;DHT22;69539;42.138;24.742;2023-05-29T14:41:29;26.30;41.50
80228;DHT22;69539;42.138;24.742;2023-05-29T14:43:55;26.40;41.80
80228;DHT22;69539;42.138;24.742;2023-05-29T14:46:26;26.40;42.10
80228;DHT22;69539;42.138;24.742;2023-05-29T14:48:54;26.40;42.20
80228;DHT22;69539;42.138;24.742;2023-05-29T14:51:20;26.40;42.40
80228;DHT22;69539;42.138;24.742;2023-05-29T14:53:46;26.40;42.70
80228;DHT22;69539;42.138;24.742;2023-05-29T14:56:11;26.50;43.10
80228;DHT22;69539;42.138;24.742;2023-05-29T14:58:37;26.50;42.70
80228;DHT22;69539;42.138;24.742;2023-05-29T15:01:03;26.50;42.70
80228;DHT22;69539;42.138;24.742;2023-05-29T15:03:28;26.50;42.50
80228;DHT22;69539;42.138;24.742;2023-05-29T15:05:54;26.50;42.60
80228;DHT22;69539;42.138;24.742;2023-05-29T15:08:20;26.50;42.90
80228;DHT22;69539;42.138;24.742;2023-05-29T15:10:46;26.40;43.20
80228;DHT22;69539;42.138;24.742;2023-05-29T15:13:12;26.40;43.30
80228;DHT22;69539;42.138;24.742;2023-05-29T15:15:37;26.40;43.40
80228;DHT22;69539;42.138;24.742;2023-05-29T15:18:03;26.40;43.80
80228;DHT22;69539;42.138;24.742;2023-05-29T15:20:29;26.30;43.80
80228;DHT22;69539;42.138;24.742;2023-05-29T15:22:55;26.30;44.00
80228;DHT22;69539;42.138;24.742;2023-05-29T15:25:21;26.30;44.40
80228;DHT22;69539;42.138;24.742;2023-05-29T15:27:47;26.20;44.70
80228;DHT22;69539;42.138;24.742;2023-05-29T15:30:15;26.20;45.00
80228;DHT22;69539;42.138;24.742;2023-05-29T15:32:42;26.10;45.50
80228;DHT22;69539;42.138;24.742;2023-05-29T15:35:09;26.10;45.70
80228;DHT22;69539;42.138;24.742;2023-05-29T15:37:36;26.10;45.80
80228;DHT22;69539;42.138;24.742;2023-05-29T15:40:03;26.00;45.70
80228;DHT22;69539;42.138;24.742;2023-05-29T15:42:29;25.90;45.90
80228;DHT22;69539;42.138;24.742;2023-05-29T15:44:55;25.90;45.90
80228;DHT22;69539;42.138;24.742;2023-05-29T15:47:20;25.90;46.20